Terminal Aerodrome Forecast
Issued by NWS

Home | Current Version | Previous Version | Text Only | Print | Product List | Glossary On
Versions: 1 2 3 4 5 6 7 8 9 10 11 12 13 14 15 16 17 18 19 20
116
FTUS44 KBMX 191723
TAFTCL
TAF
KTCL 191723Z 1918/2018 02007KT P6SM SKC
     FM200000 00000KT P6SM SKC
     FM201200 07002KT 4SM BR BKN015
     FM201500 09004KT P6SM FEW250=

USA.gov is the U.S. government's official web portal to all federal, state and local government web resources and services.